createdAt,value
2018-09-06T00:00:15.664Z,6.87
2018-09-06T00:05:19.255Z,7.20
2018-09-06T00:10:22.856Z,7.05
2018-09-06T00:15:26.574Z,6.33
2018-09-06T00:20:30.485Z,6.72
2018-09-06T00:25:34.255Z,7.00
2018-09-06T00:30:37.859Z,6.62
2018-09-06T00:35:42.310Z,7.30
2018-09-06T00:40:45.916Z,6.90
2018-09-06T00:45:49.474Z,7.25
2018-09-06T00:50:53.005Z,8.45
2018-09-06T00:55:56.510Z,10.05
2018-09-06T01:01:00.127Z,10.72
2018-09-06T01:06:03.974Z,13.10
2018-09-06T01:11:07.626Z,16.07
2018-09-06T01:16:11.150Z,17.20
2018-09-06T01:21:14.702Z,16.60
2018-09-06T01:26:18.297Z,15.03
2018-09-06T01:31:21.895Z,14.45
2018-09-06T01:36:30.689Z,13.20
2018-09-06T01:41:34.337Z,13.23
2018-09-06T01:46:38.854Z,11.75
2018-09-06T01:51:42.467Z,9.93
2018-09-06T01:56:45.951Z,9.48
2018-09-06T02:01:49.488Z,8.23
2018-09-06T02:06:52.945Z,8.20
2018-09-06T02:11:56.402Z,7.85
2018-09-06T02:16:59.959Z,8.17
2018-09-06T02:22:03.496Z,7.00
2018-09-06T02:27:07.068Z,7.37
2018-09-06T02:32:10.612Z,8.15
2018-09-06T02:37:14.113Z,7.93
2018-09-06T02:42:17.665Z,7.95
2018-09-06T02:47:21.251Z,8.13
2018-09-06T02:52:25.641Z,8.63
2018-09-06T02:57:29.195Z,8.37
2018-09-06T03:02:32.740Z,7.73
2018-09-06T03:07:39.205Z,7.97
2018-09-06T03:12:42.702Z,7.70
2018-09-06T03:17:46.227Z,8.10
2018-09-06T03:22:49.813Z,7.60
2018-09-06T03:27:53.354Z,7.60
2018-09-06T03:32:58.319Z,7.23
2018-09-06T03:38:01.869Z,7.73
2018-09-06T03:43:05.381Z,7.83
2018-09-06T03:48:08.908Z,8.77
2018-09-06T03:53:19.007Z,8.50
2018-09-06T03:58:22.566Z,8.17
2018-09-06T04:03:26.118Z,8.93
2018-09-06T04:08:29.569Z,8.23
2018-09-06T04:13:33.191Z,8.07
2018-09-06T04:18:36.828Z,8.13
2018-09-06T04:23:40.325Z,8.77
2018-09-06T04:28:43.832Z,8.63
2018-09-06T04:33:47.390Z,8.97
2018-09-06T04:38:50.898Z,8.43
2018-09-06T04:43:54.747Z,8.70
2018-09-06T04:48:58.160Z,8.97
2018-09-06T04:54:01.681Z,8.40
2018-09-06T04:59:05.229Z,11.57
2018-09-06T05:04:08.919Z,9.30
2018-09-06T05:09:12.399Z,8.50
2018-09-06T05:14:17.469Z,8.37
2018-09-06T05:19:20.943Z,8.80
2018-09-06T05:24:24.434Z,9.10
2018-09-06T05:29:27.978Z,9.73
2018-09-06T05:34:31.450Z,8.73
2018-09-06T05:39:35.042Z,9.00
2018-09-06T05:44:38.538Z,8.20
2018-09-06T05:49:42.033Z,9.50
2018-09-06T05:54:45.550Z,8.83
2018-09-06T05:59:49.053Z,8.70
2018-09-06T06:04:52.604Z,9.00
2018-09-06T06:09:56.093Z,13.00
2018-09-06T06:14:59.621Z,11.12
2018-09-06T06:20:04.574Z,10.82
2018-09-06T06:25:08.075Z,9.93
2018-09-06T06:30:11.606Z,9.48
2018-09-06T06:35:15.025Z,10.07
2018-09-06T06:40:18.545Z,8.80
2018-09-06T06:45:22.066Z,9.33
2018-09-06T06:50:25.755Z,8.63
2018-09-06T06:55:29.266Z,8.63
2018-09-06T07:00:36.956Z,8.20
2018-09-06T07:05:41.471Z,8.60
2018-09-06T07:10:44.978Z,8.73
2018-09-06T07:15:48.525Z,8.68
2018-09-06T07:20:52.144Z,8.53
2018-09-06T07:25:55.718Z,8.20
2018-09-06T07:30:59.215Z,8.50
2018-09-06T07:36:02.768Z,8.00
2018-09-06T07:41:07.366Z,8.25
2018-09-06T07:46:10.864Z,8.28
2018-09-06T07:51:15.226Z,7.62
2018-09-06T07:56:18.776Z,7.20
2018-09-06T08:01:23.223Z,7.80
2018-09-06T08:06:26.826Z,7.03
2018-09-06T08:11:30.526Z,6.87
2018-09-06T08:16:34.433Z,6.22
2018-09-06T08:21:37.958Z,6.10
2018-09-06T08:26:41.487Z,7.10
2018-09-06T08:31:45.011Z,6.00
2018-09-06T08:36:48.601Z,5.95
2018-09-06T08:41:52.093Z,7.28
2018-09-06T08:46:55.618Z,6.00
2018-09-06T08:51:59.241Z,5.80
2018-09-06T08:57:02.796Z,5.58
2018-09-06T09:02:12.580Z,5.12
2018-09-06T09:07:16.088Z,5.12
2018-09-06T09:12:19.685Z,5.60
2018-09-06T09:17:23.227Z,5.40
2018-09-06T09:22:26.888Z,5.30
2018-09-06T09:27:36.868Z,5.12
2018-09-06T09:32:40.350Z,5.33
2018-09-06T09:37:43.880Z,5.03
2018-09-06T09:42:47.378Z,5.40
2018-09-06T09:47:50.925Z,4.87
2018-09-06T09:52:54.458Z,6.83
2018-09-06T09:57:57.942Z,5.27
2018-09-06T10:03:06.865Z,5.40
2018-09-06T10:08:15.486Z,5.25
2018-09-06T10:13:19.167Z,5.17
2018-09-06T10:18:22.670Z,5.07
2018-09-06T10:23:26.255Z,4.80
2018-09-06T10:28:29.893Z,5.15
2018-09-06T10:33:33.333Z,5.58
2018-09-06T10:38:36.795Z,6.62
2018-09-06T10:43:40.420Z,4.80
2018-09-06T10:48:44.044Z,5.22
2018-09-06T10:53:47.593Z,4.65
2018-09-06T10:58:51.935Z,5.12
2018-09-06T11:03:56.926Z,4.97
2018-09-06T11:09:00.443Z,5.00
2018-09-06T11:14:03.973Z,4.90
2018-09-06T11:19:07.558Z,4.90
2018-09-06T11:24:11.066Z,6.67
2018-09-06T11:29:14.611Z,4.50
2018-09-06T11:34:18.223Z,4.83
2018-09-06T11:39:21.772Z,4.53
2018-09-06T11:44:25.304Z,4.65
2018-09-06T11:49:28.882Z,4.37
2018-09-06T11:54:32.690Z,4.95
2018-09-06T11:59:36.302Z,4.55
2018-09-06T12:04:39.887Z,4.47
2018-09-06T12:09:43.478Z,4.42
2018-09-06T12:14:47.123Z,4.65
2018-09-06T12:19:50.623Z,4.40
2018-09-06T12:24:54.617Z,4.78
2018-09-06T12:29:58.290Z,4.57
2018-09-06T12:35:02.120Z,4.47
2018-09-06T12:40:07.598Z,4.54
2018-09-06T12:45:11.206Z,4.65
2018-09-06T12:50:14.791Z,5.10
2018-09-06T12:55:18.301Z,5.37
2018-09-06T13:00:22.137Z,4.77
2018-09-06T13:05:25.792Z,6.08
2018-09-06T13:10:29.402Z,5.15
2018-09-06T13:15:32.951Z,4.77
2018-09-06T13:20:36.520Z,5.00
2018-09-06T13:25:40.159Z,5.28
2018-09-06T13:30:43.995Z,5.27
2018-09-06T13:35:47.493Z,5.78
2018-09-06T13:40:51.038Z,5.85
2018-09-06T13:45:54.537Z,5.67
2018-09-06T13:50:58.034Z,6.15
2018-09-06T13:56:01.706Z,6.37
2018-09-06T14:01:05.270Z,7.12
2018-09-06T14:06:08.868Z,6.17
2018-09-06T14:11:12.587Z,6.03
2018-09-06T14:16:16.182Z,6.40
2018-09-06T14:21:19.752Z,5.93
2018-09-06T14:26:23.278Z,6.42
2018-09-06T14:31:26.757Z,5.47
2018-09-06T14:36:30.305Z,5.83
2018-09-06T14:41:33.884Z,5.53
2018-09-06T14:46:37.380Z,5.37
2018-09-06T14:51:40.897Z,8.33
2018-09-06T14:56:44.442Z,6.78
2018-09-06T15:01:48.179Z,5.47
2018-09-06T15:06:51.932Z,5.33
2018-09-06T15:11:55.525Z,6.25
2018-09-06T15:16:59.079Z,5.00
2018-09-06T15:22:02.636Z,5.47
2018-09-06T15:27:06.584Z,5.33
2018-09-06T15:32:12.698Z,5.70
2018-09-06T15:37:16.233Z,6.17
2018-09-06T15:42:19.729Z,5.33
2018-09-06T15:47:23.601Z,5.10
2018-09-06T15:52:27.166Z,5.33
2018-09-06T15:57:30.767Z,5.03
2018-09-06T16:02:34.352Z,6.03
2018-09-06T16:07:37.947Z,5.33
2018-09-06T16:12:41.432Z,5.58
2018-09-06T16:17:44.953Z,6.03
2018-09-06T16:22:48.447Z,5.65
2018-09-06T16:27:52.066Z,5.05
2018-09-06T16:32:55.645Z,5.55
2018-09-06T16:37:59.242Z,5.78
2018-09-06T16:43:02.931Z,5.72
2018-09-06T16:48:06.537Z,5.42
2018-09-06T16:53:10.065Z,5.65
2018-09-06T16:58:13.734Z,5.40
2018-09-06T17:03:17.294Z,5.90
2018-09-06T17:08:20.981Z,5.57
2018-09-06T17:13:24.673Z,5.22
2018-09-06T17:18:28.304Z,5.75
2018-09-06T17:23:31.983Z,5.80
2018-09-06T17:28:35.691Z,7.50
2018-09-06T17:33:39.259Z,5.87
2018-09-06T17:38:42.853Z,5.55
2018-09-06T17:43:46.548Z,5.90
2018-09-06T17:48:50.251Z,5.22
2018-09-06T17:53:53.934Z,5.78
2018-09-06T17:58:58.438Z,6.42
2018-09-06T18:04:02.525Z,7.25
2018-09-06T18:09:09.465Z,7.47
2018-09-06T18:14:13.166Z,8.93
2018-09-06T18:19:16.822Z,9.15
2018-09-06T18:24:20.441Z,10.50
2018-09-06T18:29:23.962Z,11.12
2018-09-06T18:34:27.504Z,11.15
2018-09-06T18:39:31.010Z,11.57
2018-09-06T18:44:35.440Z,11.85
2018-09-06T18:49:39.010Z,12.33
2018-09-06T18:54:42.646Z,13.18
2018-09-06T18:59:46.217Z,12.58
2018-09-06T19:04:49.948Z,14.18
2018-09-06T19:09:53.438Z,14.05
2018-09-06T19:14:57.037Z,13.25
2018-09-06T19:20:00.615Z,12.95
2018-09-06T19:25:05.466Z,12.25
2018-09-06T19:30:09.329Z,11.18
2018-09-06T19:35:12.863Z,12.23
2018-09-06T19:40:16.437Z,12.13
2018-09-06T19:45:19.981Z,11.83
2018-09-06T19:51:26.251Z,10.50
2018-09-06T19:56:29.745Z,10.82
2018-09-06T20:01:33.226Z,10.00
2018-09-06T20:06:36.883Z,10.55
2018-09-06T20:11:40.374Z,8.95
2018-09-06T20:16:43.920Z,8.78
2018-09-06T20:21:47.429Z,8.98
2018-09-06T20:26:50.898Z,8.08
2018-09-06T20:31:54.453Z,7.85
2018-09-06T20:36:57.997Z,6.78
2018-09-06T20:42:01.552Z,7.83
2018-09-06T20:47:05.356Z,6.95
2018-09-06T20:52:08.895Z,6.03
2018-09-06T20:57:12.996Z,5.85
2018-09-06T21:02:22.073Z,5.50
2018-09-06T21:07:26.734Z,5.10
2018-09-06T21:12:30.407Z,5.28
2018-09-06T21:17:33.990Z,5.12
2018-09-06T21:22:37.454Z,4.72
2018-09-06T21:27:41.036Z,5.08
2018-09-06T21:32:44.622Z,5.17
2018-09-06T21:37:48.320Z,4.75
2018-09-06T21:42:52.055Z,5.30
2018-09-06T21:47:55.872Z,5.33
2018-09-06T21:52:59.465Z,6.05
2018-09-06T21:58:03.071Z,5.17
2018-09-06T22:03:11.940Z,5.83
2018-09-06T22:08:15.983Z,5.87
2018-09-06T22:13:19.494Z,5.17
2018-09-06T22:18:23.015Z,5.75
2018-09-06T22:23:26.592Z,5.40
2018-09-06T22:28:30.129Z,6.03
2018-09-06T22:33:33.704Z,5.30
2018-09-06T22:38:37.811Z,5.85
2018-09-06T22:43:41.441Z,5.47
2018-09-06T22:48:44.995Z,5.72
2018-09-06T22:53:48.481Z,5.67
2018-09-06T22:58:52.060Z,6.12
2018-09-06T23:03:56.372Z,5.83
2018-09-06T23:09:00.009Z,5.70
2018-09-06T23:14:04.308Z,5.72
2018-09-06T23:19:07.869Z,5.60
2018-09-06T23:24:13.002Z,6.45
2018-09-06T23:29:16.578Z,6.20
2018-09-06T23:34:20.082Z,5.97
2018-09-06T23:39:24.421Z,6.25
2018-09-06T23:44:27.950Z,6.35
2018-09-06T23:49:31.396Z,6.67
2018-09-06T23:54:34.896Z,7.92
2018-09-06T23:59:38.426Z,8.43
